Time;durP1;ratioP1;P1;durP2;ratioP2;P2;SDS_P1;SDS_P2;PMS_P1;PMS_P2;Temp;Humidity;BMP_temperature;BMP_pressure;BME280_temperature;BME280_humidity;BME280_pressure;Samples;Min_cycle;Max_cycle;Signal;HPM_P1;HPM_P2
2023/01/14 00:01:33;;;;;;;8.40;2.33;;;11.80;66.50;;;;;;5103591;28;20507;-70
2023/01/14 00:04:01;;;;;;;6.83;2.47;;;11.80;66.50;;;;;;5093623;28;20446;-71
2023/01/14 00:06:30;;;;;;;11.20;2.93;;;11.80;66.40;;;;;;5089563;28;20850;-69
2023/01/14 00:08:59;;;;;;;8.53;2.40;;;11.80;66.30;;;;;;5073648;28;20576;-70
2023/01/14 00:14:07;;;;;;;8.97;2.43;;;11.90;65.80;;;;;;5086746;28;20439;-71
2023/01/14 00:16:35;;;;;;;9.83;2.70;;;11.90;65.90;;;;;;5093306;28;20587;-69
2023/01/14 00:19:03;;;;;;;4.80;2.10;;;11.80;66.10;;;;;;5093902;28;20523;-71
2023/01/14 00:21:30;;;;;;;6.83;2.83;;;11.80;66.20;;;;;;5092954;28;20450;-71
2023/01/14 00:23:56;;;;;;;6.90;2.33;;;11.80;66.30;;;;;;5089682;28;20530;-71
2023/01/14 00:26:24;;;;;;;5.57;2.40;;;11.80;66.50;;;;;;5091746;28;20478;-71
2023/01/14 00:28:51;;;;;;;7.10;2.57;;;11.80;66.60;;;;;;5088886;28;20447;-71
2023/01/14 00:31:20;;;;;;;9.33;2.67;;;11.80;66.70;;;;;;5072773;28;20448;-71
2023/01/14 00:33:49;;;;;;;7.73;2.00;;;11.80;66.70;;;;;;5075676;28;20534;-70
2023/01/14 00:36:19;;;;;;;6.03;2.40;;;11.80;66.60;;;;;;5088636;28;20475;-69
2023/01/14 00:38:46;;;;;;;7.20;2.40;;;11.80;66.60;;;;;;5073326;28;20458;-70
2023/01/14 00:41:14;;;;;;;5.70;2.10;;;11.80;66.60;;;;;;5072824;28;20526;-71
2023/01/14 00:43:43;;;;;;;4.00;2.10;;;11.90;66.80;;;;;;5074446;28;20538;-70
2023/01/14 00:46:13;;;;;;;4.93;2.27;;;11.80;66.90;;;;;;5090056;28;20799;-71
2023/01/14 00:48:39;;;;;;;7.87;2.23;;;11.70;67.00;;;;;;5082264;28;20977;-70
2023/01/14 00:51:08;;;;;;;6.33;2.20;;;11.70;67.00;;;;;;5093190;28;20787;-70
2023/01/14 00:53:36;;;;;;;7.13;2.67;;;11.60;67.20;;;;;;5091471;28;20489;-70
2023/01/14 00:56:03;;;;;;;5.17;2.33;;;11.60;67.50;;;;;;5073122;28;20505;-71
2023/01/14 00:58:30;;;;;;;4.40;2.10;;;11.60;67.30;;;;;;5103110;28;20800;-71
2023/01/14 01:00:57;;;;;;;6.00;2.13;;;11.40;67.50;;;;;;5102220;28;20451;-70
2023/01/14 01:03:24;;;;;;;5.10;2.20;;;11.40;67.70;;;;;;5091613;28;20537;-70
2023/01/14 01:05:52;;;;;;;6.00;1.90;;;11.30;68.00;;;;;;5083297;28;20466;-71
2023/01/14 01:08:22;;;;;;;5.97;2.03;;;11.30;68.30;;;;;;5091251;28;20449;-71
2023/01/14 01:10:51;;;;;;;7.73;2.87;;;11.40;68.00;;;;;;5093035;28;20446;-70
2023/01/14 01:13:18;;;;;;;7.73;2.10;;;11.40;67.90;;;;;;5091069;28;20455;-69
2023/01/14 01:15:45;;;;;;;4.73;2.30;;;11.40;68.10;;;;;;5072313;28;20475;-70
2023/01/14 01:18:13;;;;;;;5.30;2.00;;;11.50;67.90;;;;;;5072522;28;20471;-70
2023/01/14 01:20:40;;;;;;;5.57;2.37;;;11.60;67.50;;;;;;5071920;28;20451;-70
2023/01/14 01:23:08;;;;;;;4.83;2.13;;;11.60;67.30;;;;;;5072163;28;20526;-70
2023/01/14 01:25:36;;;;;;;8.20;2.33;;;11.60;67.20;;;;;;5073538;28;21042;-70
2023/01/14 01:28:04;;;;;;;5.53;2.37;;;11.70;67.20;;;;;;5072223;28;20526;-70
2023/01/14 01:30:31;;;;;;;4.37;2.20;;;11.70;66.90;;;;;;5071635;28;20520;-70
2023/01/14 01:32:58;;;;;;;4.53;2.03;;;11.80;66.90;;;;;;5072074;28;20486;-70
2023/01/14 01:35:25;;;;;;;10.73;1.90;;;11.80;66.80;;;;;;5088110;28;20450;-70
2023/01/14 01:37:52;;;;;;;6.37;2.13;;;11.80;66.80;;;;;;5076363;28;20447;-70
2023/01/14 01:40:19;;;;;;;8.87;2.43;;;11.80;66.90;;;;;;5070767;28;20534;-70
2023/01/14 01:42:57;;;;;;;4.00;2.17;;;11.80;67.00;;;;;;5089004;28;20454;-70
2023/01/14 01:45:40;;;;;;;5.60;2.20;;;11.80;66.90;;;;;;5075076;28;20452;-70
2023/01/14 01:48:10;;;;;;;7.53;2.17;;;11.80;67.00;;;;;;5022524;28;21074;-70
2023/01/14 01:50:38;;;;;;;5.40;2.13;;;11.70;67.00;;;;;;5091740;28;20435;-70
2023/01/14 01:53:05;;;;;;;4.93;2.50;;;11.60;67.20;;;;;;5091455;28;20997;-70
2023/01/14 01:55:35;;;;;;;5.23;2.00;;;11.50;67.20;;;;;;5091149;28;20447;-70
2023/01/14 01:58:04;;;;;;;4.23;2.20;;;11.60;67.60;;;;;;5103644;28;20444;-70
2023/01/14 02:00:31;;;;;;;3.93;2.20;;;11.60;67.50;;;;;;5092779;28;20459;-70
2023/01/14 02:03:01;;;;;;;4.40;1.70;;;11.50;67.60;;;;;;5053879;28;20443;-70
2023/01/14 02:05:28;;;;;;;4.70;2.07;;;11.50;67.60;;;;;;5087318;28;20453;-70
2023/01/14 02:07:57;;;;;;;5.93;2.07;;;11.60;67.70;;;;;;5091444;28;20447;-70
2023/01/14 02:10:33;;;;;;;8.87;2.43;;;11.60;67.30;;;;;;5091484;28;20450;-71
2023/01/14 02:13:20;;;;;;;5.93;2.40;;;11.60;67.40;;;;;;5082026;28;20958;-70
2023/01/14 02:15:59;;;;;;;6.57;2.50;;;11.60;67.20;;;;;;5041400;28;20501;-70
2023/01/14 02:18:41;;;;;;;7.73;2.60;;;11.70;67.20;;;;;;5091108;28;20991;-71
2023/01/14 02:21:17;;;;;;;6.67;2.40;;;11.80;67.10;;;;;;5091194;28;20430;-70
2023/01/14 02:24:31;;;;;;;6.53;2.33;;;11.70;66.90;;;;;;5089830;28;20978;-70
2023/01/14 02:27:25;;;;;;;8.43;1.70;;;11.60;67.20;;;;;;5079058;28;20444;-70
2023/01/14 02:30:16;;;;;;;8.43;2.70;;;11.60;67.20;;;;;;5091336;28;20434;-70
2023/01/14 02:32:49;;;;;;;6.10;2.70;;;11.60;68.10;;;;;;5083812;28;20442;-70
2023/01/14 02:35:28;;;;;;;8.87;2.93;;;11.60;67.50;;;;;;5071482;28;20432;-70
2023/01/14 02:38:04;;;;;;;6.93;2.53;;;11.60;67.20;;;;;;5087355;28;21033;-70
2023/01/14 02:40:38;;;;;;;5.33;1.80;;;11.50;67.30;;;;;;5090696;28;20513;-70
2023/01/14 02:46:01;;;;;;;5.83;2.13;;;11.30;68.60;;;;;;5071069;28;20435;-70
2023/01/14 02:48:31;;;;;;;5.30;2.33;;;11.10;68.40;;;;;;5070954;28;20420;-70
2023/01/14 02:50:58;;;;;;;5.10;2.33;;;11.00;68.90;;;;;;5070963;28;20809;-70
2023/01/14 02:53:26;;;;;;;7.07;2.30;;;10.90;69.30;;;;;;5070298;28;20586;-71
2023/01/14 02:55:53;;;;;;;6.93;2.10;;;10.90;69.40;;;;;;5071457;28;20539;-71
2023/01/14 02:58:43;;;;;;;6.93;2.10;;;11.00;69.20;;;;;;5101937;28;20548;-69
2023/01/14 03:01:27;;;;;;;8.83;2.10;;;11.00;69.20;;;;;;5071327;28;20428;-69
2023/01/14 03:04:15;;;;;;;7.70;2.07;;;11.10;68.90;;;;;;5071098;28;20427;-71
2023/01/14 03:06:55;;;;;;;5.30;2.00;;;11.20;68.50;;;;;;5077090;28;20434;-71
2023/01/14 03:09:30;;;;;;;5.70;2.23;;;11.40;67.90;;;;;;5089975;28;20435;-71
2023/01/14 03:12:04;;;;;;;5.70;1.70;;;11.50;67.60;;;;;;5091171;28;20454;-70
2023/01/14 03:14:38;;;;;;;5.07;1.67;;;11.60;67.20;;;;;;5090836;28;20450;-70
2023/01/14 03:17:11;;;;;;;6.73;2.57;;;11.60;67.00;;;;;;5086501;28;20497;-70
2023/01/14 03:19:48;;;;;;;2.87;1.80;;;11.70;66.90;;;;;;5090362;28;20430;-70
2023/01/14 03:22:15;;;;;;;6.60;2.23;;;11.70;66.70;;;;;;5091207;28;20431;-70
2023/01/14 03:24:45;;;;;;;4.37;1.80;;;11.80;66.60;;;;;;5090593;28;20452;-70
2023/01/14 03:27:19;;;;;;;3.70;1.97;;;11.80;66.50;;;;;;5081582;28;20443;-71
2023/01/14 03:29:49;;;;;;;3.63;1.60;;;11.80;66.50;;;;;;5086841;28;20482;-70
2023/01/14 03:32:23;;;;;;;6.43;1.90;;;11.90;66.50;;;;;;5094331;28;20899;-70
2023/01/14 03:34:55;;;;;;;4.60;1.60;;;11.90;66.40;;;;;;5094445;28;20430;-70
2023/01/14 03:37:25;;;;;;;5.43;2.40;;;11.90;66.30;;;;;;5083539;28;20465;-70
2023/01/14 03:39:54;;;;;;;7.63;1.87;;;11.90;66.30;;;;;;5074268;28;20819;-70
2023/01/14 03:42:24;;;;;;;4.13;1.80;;;11.90;66.20;;;;;;5074135;28;20470;-70
2023/01/14 03:44:58;;;;;;;4.93;1.80;;;11.90;66.10;;;;;;5074152;28;20924;-71
2023/01/14 03:47:28;;;;;;;6.07;2.00;;;11.90;66.10;;;;;;5084284;28;20439;-70
2023/01/14 03:49:57;;;;;;;7.07;2.43;;;12.00;66.10;;;;;;5094280;28;20438;-70
2023/01/14 03:52:38;;;;;;;3.50;1.83;;;11.90;66.00;;;;;;5074196;28;20490;-70
2023/01/14 03:55:10;;;;;;;6.83;2.07;;;12.00;65.90;;;;;;5074153;28;20573;-70
2023/01/14 03:57:45;;;;;;;7.87;1.87;;;12.00;65.90;;;;;;5093389;28;20470;-70
2023/01/14 04:00:18;;;;;;;7.90;1.90;;;12.10;65.80;;;;;;5114604;28;20425;-70
2023/01/14 04:02:47;;;;;;;6.00;1.97;;;12.10;65.90;;;;;;5091801;28;20450;-70
2023/01/14 04:05:14;;;;;;;4.03;1.87;;;12.10;65.70;;;;;;5094011;28;20451;-71
2023/01/14 04:07:41;;;;;;;6.97;2.00;;;12.10;65.60;;;;;;5080978;28;20457;-69
2023/01/14 04:10:09;;;;;;;5.73;2.00;;;12.20;65.50;;;;;;5073906;28;20465;-70
2023/01/14 04:15:20;;;;;;;9.73;2.30;;;12.20;65.50;;;;;;5075538;28;20459;-81
2023/01/14 04:15:23;;;;;;;5.47;1.70;;;12.20;65.30;;;;;;5095552;28;20449;-73
2023/01/14 04:17:51;;;;;;;6.83;2.47;;;12.20;65.20;;;;;;5118805;28;20474;-70
2023/01/14 04:20:18;;;;;;;6.23;1.70;;;12.20;65.20;;;;;;5116447;28;20200;-70
2023/01/14 04:22:45;;;;;;;8.73;2.73;;;12.20;65.20;;;;;;5115947;28;20499;-70
2023/01/14 04:25:12;;;;;;;5.87;1.80;;;12.20;65.30;;;;;;5119405;28;20526;-71
2023/01/14 04:27:39;;;;;;;8.10;2.20;;;12.20;65.40;;;;;;5105952;28;20455;-71
2023/01/14 04:30:07;;;;;;;5.40;1.73;;;12.20;65.40;;;;;;5107895;28;20495;-69
2023/01/14 04:32:34;;;;;;;6.83;2.17;;;12.20;65.50;;;;;;5118466;28;20502;-72
2023/01/14 04:35:03;;;;;;;5.43;1.70;;;12.10;65.30;;;;;;5118890;28;20443;-71
2023/01/14 04:37:29;;;;;;;5.03;1.80;;;12.10;65.20;;;;;;5107698;28;20526;-71
2023/01/14 04:39:56;;;;;;;4.03;1.90;;;12.10;65.30;;;;;;5110067;28;20442;-69
2023/01/14 04:45:10;;;;;;;5.20;1.87;;;12.10;65.30;;;;;;5093412;28;20471;-71
2023/01/14 04:47:38;;;;;;;6.53;1.93;;;12.10;65.40;;;;;;5092584;28;20447;-70
2023/01/14 04:52:50;;;;;;;5.07;2.10;;;12.10;65.10;;;;;;5070959;28;20510;-70
2023/01/14 04:55:17;;;;;;;10.53;2.30;;;12.10;65.30;;;;;;5073063;28;20543;-70
2023/01/14 04:57:44;;;;;;;6.43;2.00;;;12.20;65.10;;;;;;5090067;28;21005;-70
2023/01/14 05:00:12;;;;;;;5.67;1.90;;;12.10;65.00;;;;;;5099230;28;20451;-70
2023/01/14 05:02:38;;;;;;;4.00;1.90;;;12.10;65.20;;;;;;5074378;28;20451;-70
2023/01/14 05:05:07;;;;;;;7.37;2.80;;;12.10;65.20;;;;;;5072766;28;20525;-70
2023/01/14 05:07:34;;;;;;;3.07;1.70;;;12.10;65.10;;;;;;5071934;28;20448;-70
2023/01/14 05:10:01;;;;;;;9.07;2.63;;;12.10;65.10;;;;;;5083750;28;20472;-70
2023/01/14 05:12:28;;;;;;;7.97;2.30;;;12.20;65.20;;;;;;5090733;28;20461;-70
2023/01/14 05:14:55;;;;;;;3.77;1.83;;;12.20;65.00;;;;;;5072150;28;20451;-70
2023/01/14 05:17:22;;;;;;;4.20;1.77;;;12.10;64.80;;;;;;5072162;28;20570;-70
2023/01/14 05:19:48;;;;;;;6.00;1.80;;;12.20;65.00;;;;;;5080880;28;20534;-70
2023/01/14 05:22:17;;;;;;;2.60;1.50;;;12.20;65.00;;;;;;5087833;28;20447;-70
2023/01/14 05:24:43;;;;;;;6.63;1.53;;;12.10;65.00;;;;;;5072722;28;20452;-71
2023/01/14 05:27:10;;;;;;;5.23;1.90;;;12.20;64.80;;;;;;5072022;28;20947;-71
2023/01/14 05:29:38;;;;;;;5.53;2.03;;;12.20;64.80;;;;;;5078187;28;20450;-70
2023/01/14 05:32:05;;;;;;;7.40;2.07;;;12.20;64.70;;;;;;5092504;28;20927;-70
2023/01/14 05:34:32;;;;;;;3.67;1.70;;;12.20;64.60;;;;;;5091508;28;20456;-70
2023/01/14 05:36:59;;;;;;;4.73;2.10;;;12.20;64.50;;;;;;5091611;28;20974;-70
2023/01/14 05:39:27;;;;;;;4.93;2.30;;;12.10;64.40;;;;;;5087172;28;20530;-70
2023/01/14 05:47:22;;;;;;;5.53;2.17;;;12.10;65.30;;;;;;5072112;28;20898;-70
2023/01/14 05:49:49;;;;;;;5.83;2.10;;;12.10;64.90;;;;;;5073175;28;20455;-71
2023/01/14 05:52:16;;;;;;;7.50;2.20;;;12.10;65.00;;;;;;5071426;28;20489;-71
2023/01/14 05:54:50;;;;;;;5.93;2.03;;;12.00;65.10;;;;;;5071094;28;20534;-70
2023/01/14 05:57:17;;;;;;;7.27;2.20;;;12.00;65.10;;;;;;5082127;28;20484;-71
2023/01/14 05:59:43;;;;;;;5.57;2.00;;;12.00;65.20;;;;;;5096546;28;20454;-71
2023/01/14 06:07:51;;;;;;;5.43;2.00;;;12.00;65.40;;;;;;5028823;28;20441;-71
2023/01/14 06:10:19;;;;;;;7.77;2.47;;;12.00;65.50;;;;;;5064773;28;20454;-69
2023/01/14 06:12:58;;;;;;;5.47;2.30;;;12.00;65.80;;;;;;5071567;28;20455;-71
2023/01/14 06:15:25;;;;;;;6.67;2.43;;;12.00;65.80;;;;;;5079801;28;20438;-71
2023/01/14 06:17:58;;;;;;;11.47;2.47;;;11.90;65.90;;;;;;5090667;28;20498;-70
2023/01/14 06:20:25;;;;;;;6.43;2.40;;;11.90;66.10;;;;;;5079203;28;20459;-71
2023/01/14 06:22:55;;;;;;;5.67;2.13;;;11.90;66.10;;;;;;5078306;28;20456;-70
2023/01/14 06:25:23;;;;;;;12.77;2.73;;;11.90;66.30;;;;;;5091203;28;20446;-71
2023/01/14 06:27:50;;;;;;;6.40;2.20;;;11.90;66.40;;;;;;5090582;28;20495;-71
2023/01/14 06:30:18;;;;;;;8.70;2.17;;;11.80;66.30;;;;;;5080380;28;20530;-71
2023/01/14 06:32:45;;;;;;;11.97;2.67;;;11.80;66.30;;;;;;5070809;28;20455;-69
2023/01/14 06:35:12;;;;;;;6.17;2.20;;;11.90;67.30;;;;;;5071445;28;20469;-71
2023/01/14 06:37:39;;;;;;;10.00;2.50;;;11.90;66.30;;;;;;5079473;28;20489;-71
2023/01/14 06:40:07;;;;;;;10.93;2.50;;;12.00;66.30;;;;;;5091461;28;20449;-71
2023/01/14 06:42:35;;;;;;;6.50;2.10;;;12.00;66.30;;;;;;5090425;28;20454;-71
2023/01/14 06:45:02;;;;;;;7.63;2.10;;;12.00;66.00;;;;;;5089180;28;20451;-71
2023/01/14 06:47:32;;;;;;;8.97;2.47;;;12.10;65.80;;;;;;5091132;28;20450;-71
2023/01/14 06:49:59;;;;;;;6.17;2.77;;;12.10;65.50;;;;;;5081321;28;20452;-71
2023/01/14 06:52:26;;;;;;;7.27;2.50;;;12.20;65.40;;;;;;5070954;28;20845;-71
2023/01/14 06:54:53;;;;;;;11.27;2.40;;;12.20;65.30;;;;;;5087316;28;20454;-70
2023/01/14 06:57:20;;;;;;;7.53;2.20;;;12.20;65.30;;;;;;5096393;28;20996;-70
2023/01/14 06:59:49;;;;;;;6.77;2.00;;;12.10;65.10;;;;;;5111112;28;20452;-70
2023/01/14 07:02:16;;;;;;;6.03;2.00;;;12.10;65.10;;;;;;5097722;28;21012;-70
2023/01/14 07:04:43;;;;;;;5.73;2.20;;;12.10;65.30;;;;;;5074663;28;20451;-71
2023/01/14 07:07:11;;;;;;;4.83;2.23;;;12.10;65.20;;;;;;5075904;28;20454;-70
2023/01/14 07:09:38;;;;;;;6.60;2.50;;;12.10;65.10;;;;;;5094773;28;20519;-70
2023/01/14 07:12:05;;;;;;;8.80;2.43;;;12.10;65.10;;;;;;5094661;28;20454;-71
2023/01/14 07:14:32;;;;;;;5.10;2.17;;;12.20;65.20;;;;;;5092798;28;20508;-71
2023/01/14 07:17:01;;;;;;;5.33;2.37;;;12.20;65.00;;;;;;5094854;28;20446;-71
2023/01/14 07:19:28;;;;;;;5.57;2.37;;;12.30;65.10;;;;;;5094789;28;20546;-71
2023/01/14 07:21:55;;;;;;;9.57;2.73;;;12.30;65.70;;;;;;5094667;28;20806;-70
2023/01/14 07:24:22;;;;;;;9.53;2.47;;;12.30;64.80;;;;;;5082067;28;20489;-70
2023/01/14 07:26:49;;;;;;;7.20;2.20;;;12.40;65.40;;;;;;5089282;28;20529;-71
2023/01/14 07:29:15;;;;;;;7.03;2.50;;;12.40;65.30;;;;;;5094070;28;20540;-71
2023/01/14 07:31:43;;;;;;;4.77;1.90;;;12.40;64.50;;;;;;5089117;28;20488;-71
2023/01/14 07:34:11;;;;;;;7.23;2.30;;;12.40;64.40;;;;;;5084944;28;20478;-71
2023/01/14 07:36:38;;;;;;;6.70;2.27;;;12.50;64.10;;;;;;5082188;28;20450;-69
2023/01/14 07:39:05;;;;;;;5.83;1.97;;;12.40;63.90;;;;;;5078021;28;20569;-71
2023/01/14 07:41:31;;;;;;;4.43;2.07;;;12.40;63.80;;;;;;5074132;28;20509;-70
2023/01/14 07:44:00;;;;;;;8.80;2.67;;;12.50;64.40;;;;;;5074274;28;20447;-71
2023/01/14 07:46:27;;;;;;;5.30;2.43;;;12.50;63.50;;;;;;5075597;28;20455;-71
2023/01/14 07:48:54;;;;;;;7.53;2.00;;;12.50;63.60;;;;;;5073869;28;20534;-70
2023/01/14 07:51:23;;;;;;;6.83;2.27;;;12.50;63.70;;;;;;5074232;28;20479;-70
2023/01/14 07:53:50;;;;;;;6.63;2.00;;;12.50;63.60;;;;;;5073001;28;20478;-71
2023/01/14 07:56:17;;;;;;;6.17;2.13;;;12.50;63.50;;;;;;5077865;28;20942;-71
2023/01/14 07:58:44;;;;;;;6.73;1.87;;;12.50;63.60;;;;;;5110834;28;20476;-71
2023/01/14 08:01:11;;;;;;;5.53;1.97;;;12.50;63.60;;;;;;5109691;28;20457;-71
2023/01/14 08:03:38;;;;;;;6.30;1.93;;;12.60;63.80;;;;;;5091010;28;20447;-71
2023/01/14 08:06:07;;;;;;;6.87;2.03;;;12.50;63.50;;;;;;5091820;28;20450;-71
2023/01/14 08:08:35;;;;;;;5.07;2.30;;;12.50;63.50;;;;;;5073521;28;20544;-71
2023/01/14 08:11:03;;;;;;;6.83;2.10;;;12.50;63.50;;;;;;5073394;28;20534;-71
2023/01/14 08:13:31;;;;;;;4.73;2.40;;;12.50;63.20;;;;;;5073712;28;20451;-70
2023/01/14 08:16:00;;;;;;;7.93;2.50;;;12.50;63.30;;;;;;5073371;28;20865;-70
2023/01/14 08:18:29;;;;;;;5.80;2.17;;;12.50;63.10;;;;;;5093560;28;20486;-71
2023/01/14 08:20:59;;;;;;;3.43;1.93;;;12.50;63.20;;;;;;5093328;28;20462;-70
2023/01/14 08:23:26;;;;;;;7.43;2.00;;;12.50;63.10;;;;;;5093459;28;20450;-71
2023/01/14 08:25:55;;;;;;;4.93;2.27;;;12.50;62.90;;;;;;5083546;28;20457;-70
2023/01/14 08:28:21;;;;;;;5.20;2.23;;;12.50;62.60;;;;;;5072916;28;21000;-71
2023/01/14 08:30:48;;;;;;;5.90;2.20;;;12.50;62.60;;;;;;5072694;28;20538;-70
2023/01/14 08:33:15;;;;;;;6.63;2.13;;;12.60;62.90;;;;;;5073226;28;20535;-70
2023/01/14 08:35:42;;;;;;;3.73;2.13;;;12.60;63.00;;;;;;5072397;28;20940;-71
2023/01/14 08:38:09;;;;;;;2.90;1.97;;;12.70;63.40;;;;;;5075783;28;21009;-71
2023/01/14 08:40:36;;;;;;;3.33;1.80;;;12.60;63.60;;;;;;5075068;28;20904;-71
2023/01/14 08:43:04;;;;;;;6.47;2.20;;;12.70;63.60;;;;;;5081810;28;20542;-71
2023/01/14 08:45:31;;;;;;;9.00;2.40;;;12.80;63.90;;;;;;5092898;28;20452;-71
2023/01/14 08:47:58;;;;;;;4.00;1.40;;;12.80;64.20;;;;;;5093054;28;20444;-71
2023/01/14 08:50:25;;;;;;;2.10;1.37;;;12.80;65.90;;;;;;5092783;28;20462;-70
2023/01/14 08:52:52;;;;;;;5.77;1.60;;;12.80;66.50;;;;;;5092082;28;20556;-70
2023/01/14 08:55:19;;;;;;;3.33;1.50;;;12.80;66.70;;;;;;5092995;28;20451;-71
2023/01/14 08:57:46;;;;;;;4.07;1.87;;;12.90;66.60;;;;;;5092659;28;20808;-72
2023/01/14 09:00:16;;;;;;;3.23;1.50;;;13.00;66.70;;;;;;5092921;28;20454;-72
2023/01/14 09:02:43;;;;;;;1.83;1.40;;;13.00;66.60;;;;;;5091796;28;20820;-72
2023/01/14 09:05:09;;;;;;;2.93;1.50;;;13.10;66.80;;;;;;5092143;28;20538;-72
2023/01/14 09:18:37;;;;;;;2.20;1.40;;;13.20;66.50;;;;;;5072032;28;20617;-72
2023/01/14 09:21:04;;;;;;;2.93;1.20;;;13.20;66.40;;;;;;5072318;28;20923;-72
2023/01/14 09:23:31;;;;;;;2.33;1.20;;;13.30;66.40;;;;;;5071651;28;20956;-72
2023/01/14 09:25:58;;;;;;;2.77;2.17;;;13.30;66.20;;;;;;5071835;28;20479;-72
2023/01/14 09:28:25;;;;;;;5.40;1.80;;;13.30;66.10;;;;;;5036072;28;20482;-71
2023/01/14 09:30:53;;;;;;;4.10;1.77;;;13.30;66.10;;;;;;5071370;28;20451;-71
2023/01/14 09:33:20;;;;;;;3.00;1.77;;;13.30;66.30;;;;;;5071988;28;20959;-72
2023/01/14 09:35:47;;;;;;;2.97;1.47;;;13.40;66.20;;;;;;5070751;28;20443;-73
2023/01/14 09:38:14;;;;;;;5.70;1.60;;;13.30;65.50;;;;;;5071899;28;21002;-73
2023/01/14 09:40:41;;;;;;;2.73;1.27;;;13.30;65.80;;;;;;5071815;28;20453;-72
2023/01/14 09:43:16;;;;;;;4.27;1.77;;;13.30;65.90;;;;;;5072020;28;20458;-72
2023/01/14 09:45:44;;;;;;;3.30;1.43;;;13.30;66.10;;;;;;5071604;28;20443;-71
2023/01/14 09:48:15;;;;;;;3.40;1.43;;;13.30;66.00;;;;;;5072204;28;20867;-71
2023/01/14 09:50:53;;;;;;;2.73;1.37;;;13.40;66.10;;;;;;5071109;28;20443;-71
2023/01/14 09:53:38;;;;;;;3.77;2.17;;;13.40;66.00;;;;;;5071408;28;20485;-71
2023/01/14 09:56:13;;;;;;;2.30;1.50;;;13.50;65.80;;;;;;5071397;28;21043;-71
2023/01/14 09:58:44;;;;;;;3.53;1.80;;;13.50;65.80;;;;;;5091377;28;20561;-72
2023/01/14 10:01:18;;;;;;;3.10;1.20;;;13.50;65.80;;;;;;5086440;28;20941;-72
2023/01/14 10:03:52;;;;;;;2.87;1.20;;;13.50;65.70;;;;;;5091153;28;20525;-72
2023/01/14 10:06:19;;;;;;;4.03;1.90;;;13.50;65.60;;;;;;5092198;28;20685;-72
2023/01/14 10:08:50;;;;;;;2.70;1.70;;;13.50;65.50;;;;;;5089680;28;20450;-72
2023/01/14 10:11:17;;;;;;;3.90;1.50;;;13.60;65.70;;;;;;5091725;28;20450;-72
2023/01/14 10:13:49;;;;;;;2.03;1.30;;;13.60;65.90;;;;;;5073866;28;20860;-72
2023/01/14 10:16:20;;;;;;;2.63;1.70;;;13.70;65.70;;;;;;5077764;28;20546;-72
2023/01/14 10:18:54;;;;;;;3.00;1.90;;;13.70;65.40;;;;;;5082890;28;20573;-71
2023/01/14 10:21:27;;;;;;;2.03;1.67;;;13.80;65.50;;;;;;5071711;28;20436;-71
2023/01/14 10:23:54;;;;;;;2.13;1.30;;;13.80;65.50;;;;;;5070737;28;20428;-71
2023/01/14 10:26:22;;;;;;;2.10;1.23;;;13.90;65.40;;;;;;5071307;28;21015;-71
2023/01/14 10:28:52;;;;;;;2.53;1.10;;;13.90;65.00;;;;;;5071873;28;20451;-72
2023/01/14 10:31:23;;;;;;;3.33;1.33;;;13.90;65.30;;;;;;5071848;28;20496;-71
2023/01/14 10:33:52;;;;;;;1.60;1.40;;;13.90;65.00;;;;;;5070866;28;20455;-71
2023/01/14 10:36:22;;;;;;;2.03;1.13;;;13.90;65.10;;;;;;5071887;28;20451;-71
2023/01/14 10:38:50;;;;;;;3.27;1.33;;;13.90;64.80;;;;;;5089064;28;20471;-71
2023/01/14 10:41:48;;;;;;;2.93;1.33;;;14.00;65.00;;;;;;5095333;28;20968;-71
2023/01/14 10:44:06;;;;;;;2.07;1.60;;;14.00;64.80;;;;;;5094676;28;20450;-71
2023/01/14 10:46:33;;;;;;;3.87;1.33;;;14.10;64.90;;;;;;5080628;28;20947;-72
2023/01/14 10:49:06;;;;;;;3.30;1.47;;;14.00;64.60;;;;;;5075906;28;20449;-72
2023/01/14 10:51:38;;;;;;;2.00;1.20;;;14.10;64.80;;;;;;5074989;28;20999;-72
2023/01/14 10:54:13;;;;;;;2.13;1.27;;;14.10;64.50;;;;;;5074295;28;21074;-70
2023/01/14 10:56:45;;;;;;;2.57;1.20;;;14.10;64.50;;;;;;5091457;28;20442;-73
2023/01/14 10:59:33;;;;;;;2.53;1.53;;;14.00;64.40;;;;;;5079674;28;20539;-72
2023/01/14 11:02:00;;;;;;;2.97;1.17;;;14.00;64.60;;;;;;5079792;28;20443;-72
2023/01/14 11:04:31;;;;;;;1.70;0.90;;;14.00;64.90;;;;;;5075332;28;20529;-72
2023/01/14 11:07:07;;;;;;;2.10;1.07;;;14.10;64.80;;;;;;5074311;28;20790;-72
2023/01/14 11:09:37;;;;;;;2.27;1.10;;;14.10;64.70;;;;;;5075892;28;20977;-71
2023/01/14 11:12:05;;;;;;;1.80;1.30;;;14.10;64.70;;;;;;5076039;28;20450;-72
2023/01/14 11:14:37;;;;;;;1.67;1.30;;;14.10;64.50;;;;;;5085666;28;20450;-72
2023/01/14 11:17:22;;;;;;;1.70;1.30;;;14.10;64.80;;;;;;5089120;28;20458;-72
2023/01/14 11:19:51;;;;;;;2.87;1.60;;;14.10;64.70;;;;;;5076100;28;21002;-72
2023/01/14 11:22:19;;;;;;;5.10;1.70;;;14.00;64.70;;;;;;5076291;28;20482;-72
2023/01/14 11:24:49;;;;;;;3.43;1.50;;;14.10;65.10;;;;;;5074069;28;20535;-72
2023/01/14 11:27:20;;;;;;;2.77;1.67;;;14.10;65.00;;;;;;5074856;28;20435;-72
2023/01/14 11:29:51;;;;;;;3.13;2.00;;;14.10;64.80;;;;;;5073813;28;20975;-73
2023/01/14 11:32:24;;;;;;;3.27;1.90;;;14.10;65.20;;;;;;5076246;28;20447;-71
2023/01/14 11:34:55;;;;;;;3.37;1.90;;;14.20;64.90;;;;;;5056224;28;20959;-72
2023/01/14 11:37:23;;;;;;;3.60;1.80;;;14.30;64.90;;;;;;5074802;28;20545;-72
2023/01/14 11:39:53;;;;;;;2.70;1.90;;;14.30;64.50;;;;;;5073506;28;21101;-72
2023/01/14 11:42:39;;;;;;;2.47;1.70;;;14.30;64.40;;;;;;5076483;28;20459;-70
2023/01/14 11:45:18;;;;;;;3.80;1.80;;;14.40;64.50;;;;;;5081671;28;20444;-73
2023/01/14 11:47:49;;;;;;;3.43;1.80;;;14.30;64.10;;;;;;5073784;28;20427;-73
2023/01/14 11:50:21;;;;;;;2.87;2.07;;;14.30;63.90;;;;;;5073972;28;20904;-72
2023/01/14 11:53:03;;;;;;;2.07;1.53;;;14.30;64.10;;;;;;5072243;28;20561;-72
2023/01/14 11:55:33;;;;;;;2.43;1.67;;;14.30;64.20;;;;;;5074171;28;20482;-72
2023/01/14 11:58:04;;;;;;;2.17;1.47;;;14.30;64.20;;;;;;5095654;28;20524;-72
2023/01/14 12:00:33;;;;;;;3.73;1.43;;;14.40;64.20;;;;;;5114257;28;20580;-72
2023/01/14 12:03:05;;;;;;;2.20;1.30;;;14.40;64.10;;;;;;5098395;28;20806;-72
2023/01/14 12:05:35;;;;;;;1.83;1.50;;;14.40;63.70;;;;;;5093639;28;20442;-72
2023/01/14 12:08:08;;;;;;;2.33;1.53;;;14.40;63.60;;;;;;5088762;28;20538;-72
2023/01/14 12:10:43;;;;;;;2.90;1.63;;;14.50;63.70;;;;;;5074077;28;20847;-72
2023/01/14 12:18:53;;;;;;;2.17;1.70;;;14.60;63.10;;;;;;5092517;28;20477;-72
2023/01/14 12:21:26;;;;;;;2.03;1.27;;;14.50;62.90;;;;;;5078418;28;20444;-73
2023/01/14 12:23:58;;;;;;;2.40;1.57;;;14.50;63.00;;;;;;5075114;28;20432;-73
2023/01/14 12:26:30;;;;;;;2.10;1.30;;;14.50;63.00;;;;;;5093276;28;20876;-73
2023/01/14 12:29:01;;;;;;;2.57;1.40;;;14.60;62.70;;;;;;5073166;28;20514;-72
2023/01/14 12:31:33;;;;;;;1.20;1.10;;;14.60;62.40;;;;;;5091121;28;20462;-72
2023/01/14 12:34:08;;;;;;;1.80;1.23;;;14.60;61.80;;;;;;5093061;28;20976;-71
2023/01/14 12:36:42;;;;;;;2.73;1.13;;;14.70;61.90;;;;;;5086832;28;20797;-72
2023/01/14 12:47:37;;;;;;;1.10;1.07;;;14.60;60.70;;;;;;5092694;28;20433;-72
2023/01/14 12:50:08;;;;;;;1.47;0.90;;;14.60;60.90;;;;;;5093114;28;20504;-73
2023/01/14 12:52:40;;;;;;;1.10;0.90;;;14.70;60.40;;;;;;5095782;28;20478;-72
2023/01/14 12:55:16;;;;;;;1.20;1.10;;;14.70;60.30;;;;;;5081253;28;20527;-72
2023/01/14 12:57:43;;;;;;;1.80;1.07;;;14.70;60.00;;;;;;5090935;28;20441;-72
2023/01/14 13:00:18;;;;;;;2.20;1.10;;;14.70;59.80;;;;;;5081714;28;20475;-72
2023/01/14 13:02:48;;;;;;;2.00;1.37;;;14.80;59.80;;;;;;5072828;28;20555;-72
2023/01/14 13:05:24;;;;;;;2.50;1.10;;;14.80;59.60;;;;;;5072794;28;20524;-72
2023/01/14 13:07:56;;;;;;;1.20;1.00;;;14.80;59.50;;;;;;5072448;28;20443;-74
2023/01/14 13:10:29;;;;;;;1.10;0.90;;;14.80;59.30;;;;;;5072405;28;20895;-72
2023/01/14 13:12:56;;;;;;;1.73;0.73;;;14.80;59.40;;;;;;5072293;28;20451;-72
2023/01/14 13:15:27;;;;;;;1.43;1.00;;;14.70;59.00;;;;;;5072786;28;20447;-72
2023/01/14 13:17:55;;;;;;;1.00;0.90;;;14.80;59.10;;;;;;5071755;28;20471;-72
2023/01/14 13:20:51;;;;;;;3.83;1.67;;;14.80;59.20;;;;;;5073378;28;20490;-72
2023/01/14 13:23:56;;;;;;;2.93;1.20;;;14.80;59.00;;;;;;5081924;28;20442;-72
2023/01/14 13:26:55;;;;;;;1.17;1.07;;;14.80;58.50;;;;;;5078514;28;20446;-72
2023/01/14 13:29:25;;;;;;;1.07;0.90;;;14.90;58.30;;;;;;5092767;28;20476;-72
2023/01/14 13:31:52;;;;;;;1.20;0.93;;;14.90;58.10;;;;;;5089390;28;20444;-72
2023/01/14 13:35:02;;;;;;;1.30;0.83;;;14.90;57.90;;;;;;5092344;28;20787;-72
2023/01/14 13:37:44;;;;;;;4.47;1.40;;;14.90;57.80;;;;;;5071963;28;20430;-72
2023/01/14 13:40:19;;;;;;;1.47;1.17;;;15.00;58.10;;;;;;5071055;28;20489;-72
2023/01/14 13:42:56;;;;;;;2.27;1.63;;;15.00;57.60;;;;;;5081751;28;20465;-72
2023/01/14 13:45:28;;;;;;;2.17;1.50;;;14.90;57.40;;;;;;5092031;28;20525;-72
2023/01/14 13:47:56;;;;;;;1.23;0.97;;;14.90;57.50;;;;;;5091825;28;20530;-72
2023/01/14 13:50:26;;;;;;;1.53;1.00;;;15.00;58.00;;;;;;5092031;28;20533;-72